Hasanuddin International Airport
WAAA : now visible

Airfield :











YOU CAN JOIN US ON...

 
LOGIN :

Register | Disclaimer

   EN    FR    IT 

 









Legend :    VFR   Marginal VFR   IFR   Intensive IFR   Very Intensive IFR
Visi :
Ceiling :
>= 8 km
>= 3000ft
5 to 8 km
1000 to 3000 ft
1500m to 5 km
500 to 1000 ft
800 to 1500m
200 to 500 ft
< 800m
< 200 ft
Symbols :   Thunderstorms  Fog  Heavy snow  Heavy precipitations  Wind > 20 kt






- Airport Elevation : 47 ft
- IATA code : UPG


WAAA - Hasanuddin International

CURRENT METAR :
  • 242300Z VRB02KT 9999 FEW019 24/22 Q1009 NOSIG

EXPIRED METARs :
  • 242230Z VRB01KT 9999 FEW019 23/21 Q1008 NOSIG
  • 242200Z 13003KT 100V160 9999 FEW019 23/21 Q1008 NOSIG
  • 242130Z VRB02KT 8000 FEW019 23/21 Q1008 NOSIG
  • 242100Z VRB02KT 8000 FEW019 24/21 Q1008 NOSIG
  • 242030Z VRB02KT 8000 FEW019 24/21 Q1008 NOSIG
  • 242000Z 17003KT 140V200 8000 FEW019 24/21 Q1008 NOSIG
  • 241930Z 13003KT 8000 FEW019 24/21 Q1008 NOSIG
  • 241900Z 11003KT 8000 FEW019 24/21 Q1008 NOSIG
  • 241830Z 15003KT 8000 FEW019 24/21 Q1008 NOSIG

TAF TAF WAAA
Valid from the 24 at 18:00 until the 26 at 00:00 UTC


241700Z 2418/2524 11004KT 8000 FEW019
BECMG 2502/2504 30010KT
WAAF FIR / Asia



MET'MAP, your aeronautical weather chart ! - Copyright ORBIFLY December 2007 - Disclaimer

ORBIFLY MET'MAP TEAM :

Programming & Development : Alexandra Zaïnal
Original concept : Baudouin d'Aumeries
Technical & hardware support : Manuel Goepfert
Assistance : Marc-Olivier Méhu




SOURCES & CREDITS :

   NOAA       Earth
Advisory